Time;durP1;ratioP1;P1;durP2;ratioP2;P2;SDS_P1;SDS_P2;PMS_P1;PMS_P2;Temp;Humidity;BMP_temperature;BMP_pressure;BME280_temperature;BME280_humidity;BME280_pressure;Samples;Min_cycle;Max_cycle;Signal;HPM_P1;HPM_P2
2024/04/07 00:01:33;;;;;;;14.93;9.70;;;;;;;14.03;73.28;100663.31;5062659;28;20202;-61
2024/04/07 00:03:59;;;;;;;17.27;9.97;;;;;;;14.02;73.33;100671.94;5066376;28;20213;-59
2024/04/07 00:06:28;;;;;;;10.67;8.97;;;;;;;14.00;73.48;100674.56;5067649;28;20229;-61
2024/04/07 00:08:54;;;;;;;12.83;9.50;;;;;;;13.99;73.40;100667.69;5065196;28;20206;-60
2024/04/07 00:11:21;;;;;;;16.63;10.00;;;;;;;14.01;73.92;100665.91;5066332;28;20221;-63
2024/04/07 00:13:49;;;;;;;12.87;9.90;;;;;;;14.02;73.48;100671.94;5060638;28;20697;-60
2024/04/07 00:16:16;;;;;;;11.80;9.60;;;;;;;13.99;73.51;100671.97;5063791;28;20202;-61
2024/04/07 00:18:41;;;;;;;17.83;9.77;;;;;;;13.99;73.54;100678.03;5069247;28;20210;-61
2024/04/07 00:21:09;;;;;;;11.70;7.47;;;;;;;13.92;73.37;100673.00;5067305;28;20241;-62
2024/04/07 00:23:35;;;;;;;16.07;9.37;;;;;;;13.96;73.85;100680.69;5067264;28;20214;-60
2024/04/07 00:26:01;;;;;;;15.43;9.90;;;;;;;13.94;73.32;100682.44;5059765;28;20226;-65
2024/04/07 00:28:28;;;;;;;15.60;9.77;;;;;;;13.93;73.64;100680.72;5060043;28;20224;-62
2024/04/07 00:30:57;;;;;;;16.10;10.37;;;;;;;13.87;73.63;100683.41;5061523;28;20650;-61
2024/04/07 00:33:23;;;;;;;15.60;9.20;;;;;;;13.80;74.39;100674.00;5066623;28;20201;-61
2024/04/07 00:35:58;;;;;;;15.77;9.83;;;;;;;13.70;74.43;100675.88;5059481;28;20202;-59
2024/04/07 00:38:25;;;;;;;16.27;9.23;;;;;;;13.70;75.01;100690.56;5062876;28;20201;-59
2024/04/07 00:40:54;;;;;;;13.77;10.40;;;;;;;13.68;74.70;100692.31;5071770;28;20551;-59
2024/04/07 00:43:20;;;;;;;11.90;9.30;;;;;;;13.64;75.05;100686.31;5069579;28;20228;-61
2024/04/07 00:45:47;;;;;;;17.40;9.13;;;;;;;13.60;75.48;100691.56;5063513;28;20696;-63
2024/04/07 00:48:17;;;;;;;15.57;9.23;;;;;;;13.54;75.71;100695.09;5056797;28;20208;-62
2024/04/07 00:50:48;;;;;;;12.17;9.27;;;;;;;13.48;76.07;100685.69;5044775;28;20264;-64
2024/04/07 00:53:15;;;;;;;13.50;8.57;;;;;;;13.38;75.88;100678.91;5061617;28;20209;-64
2024/04/07 00:55:43;;;;;;;14.60;8.90;;;;;;;13.34;76.15;100677.25;5051833;28;20283;-66
2024/04/07 00:58:09;;;;;;;11.60;7.80;;;;;;;13.28;76.71;100672.13;5060618;28;20216;-64
2024/04/07 01:00:36;;;;;;;11.57;8.03;;;;;;;13.21;76.77;100670.47;5056762;28;20633;-64
2024/04/07 01:03:03;;;;;;;14.53;8.60;;;;;;;13.18;77.35;100676.53;5059014;28;20547;-64
2024/04/07 01:05:40;;;;;;;15.60;8.77;;;;;;;13.17;78.09;100679.13;5069629;28;20237;-63
2024/04/07 01:08:07;;;;;;;11.53;9.07;;;;;;;13.16;77.80;100680.03;5062570;28;20297;-67
2024/04/07 01:10:34;;;;;;;10.07;8.23;;;;;;;13.16;78.57;100692.97;5059863;28;20205;-64
2024/04/07 01:13:00;;;;;;;14.63;8.93;;;;;;;13.18;78.43;100693.78;5049664;28;20214;-65
2024/04/07 01:15:27;;;;;;;17.77;8.63;;;;;;;13.17;77.99;100692.06;5054168;28;20579;-64
2024/04/07 01:17:53;;;;;;;12.63;8.97;;;;;;;13.13;78.37;100690.41;5051042;28;20213;-65
2024/04/07 01:20:20;;;;;;;14.00;9.23;;;;;;;13.09;78.88;100687.00;5057069;28;20209;-65
2024/04/07 01:22:50;;;;;;;13.43;9.20;;;;;;;13.08;78.81;100689.59;5056514;28;20660;-65
2024/04/07 01:25:19;;;;;;;16.63;9.23;;;;;;;13.03;79.03;100676.69;5070062;28;20229;-63
2024/04/07 01:27:46;;;;;;;12.80;9.60;;;;;;;13.02;78.88;100690.53;5055786;28;20221;-64
2024/04/07 01:30:13;;;;;;;15.77;9.37;;;;;;;12.99;79.46;100691.41;5051881;28;20293;-65
2024/04/07 01:32:42;;;;;;;15.37;9.37;;;;;;;13.01;79.56;100700.00;5053298;28;20785;-65
2024/04/07 01:35:09;;;;;;;12.90;8.90;;;;;;;13.03;79.67;100712.91;5051783;28;20205;-65
2024/04/07 01:37:35;;;;;;;14.73;9.23;;;;;;;13.04;79.19;100705.16;5051953;28;20202;-64
2024/04/07 01:40:03;;;;;;;14.97;9.33;;;;;;;13.04;79.28;100700.00;5054073;28;20210;-64
2024/04/07 01:42:30;;;;;;;16.50;9.27;;;;;;;13.00;79.57;100698.31;5054296;28;20553;-64
2024/04/07 01:44:57;;;;;;;12.87;8.80;;;;;;;13.00;79.07;100708.66;5060050;28;20618;-64
2024/04/07 01:47:23;;;;;;;12.30;9.50;;;;;;;12.97;79.52;100707.84;5052774;28;20216;-64
2024/04/07 01:49:50;;;;;;;14.23;9.47;;;;;;;12.94;79.41;100711.31;5052088;28;20202;-64
2024/04/07 01:52:17;;;;;;;18.03;10.27;;;;;;;12.92;79.37;100713.03;5066749;28;20593;-64
2024/04/07 01:54:44;;;;;;;15.77;8.90;;;;;;;12.95;79.42;100715.59;5069851;28;20231;-65
2024/04/07 01:57:11;;;;;;;11.60;9.23;;;;;;;12.96;79.31;100719.03;5065555;28;20680;-64
2024/04/07 01:59:39;;;;;;;13.67;9.10;;;;;;;12.97;79.88;100716.44;5034804;28;20244;-60
2024/04/07 02:02:05;;;;;;;15.17;8.97;;;;;;;12.94;79.29;100706.13;5053587;28;20207;-60
2024/04/07 02:04:32;;;;;;;17.40;10.13;;;;;;;12.93;79.41;100707.00;5059388;28;20213;-61
2024/04/07 02:06:58;;;;;;;11.73;9.27;;;;;;;12.90;79.19;100711.34;5056303;28;20700;-60
2024/04/07 02:09:25;;;;;;;11.43;8.67;;;;;;;12.86;79.73;100709.69;5056767;28;20266;-60
2024/04/07 02:11:51;;;;;;;14.27;9.00;;;;;;;12.82;80.08;100714.03;5052043;28;20233;-60
2024/04/07 02:14:18;;;;;;;10.83;8.27;;;;;;;12.82;79.90;100704.53;5051066;28;20213;-61
2024/04/07 02:16:45;;;;;;;12.03;9.60;;;;;;;12.82;80.22;100708.84;5046112;28;20198;-58
2024/04/07 02:19:14;;;;;;;14.57;9.20;;;;;;;12.78;80.17;100713.19;5059056;28;20205;-58
2024/04/07 02:21:40;;;;;;;14.60;9.03;;;;;;;12.76;79.83;100708.91;5060940;28;20245;-60
2024/04/07 02:24:07;;;;;;;16.03;9.30;;;;;;;12.71;80.70;100711.53;5058308;28;20272;-60
2024/04/07 02:26:33;;;;;;;14.87;8.93;;;;;;;12.69;81.02;100708.09;5062025;28;20225;-61
2024/04/07 02:29:00;;;;;;;15.63;8.23;;;;;;;12.64;81.07;100688.34;5051953;28;20213;-60
2024/04/07 02:31:26;;;;;;;13.70;8.63;;;;;;;12.69;81.07;100691.72;5041788;28;20210;-60
2024/04/07 02:33:55;;;;;;;14.40;9.13;;;;;;;12.70;80.86;100694.31;5060842;28;20656;-60
2024/04/07 02:36:21;;;;;;;11.50;7.23;;;;;;;12.73;80.67;100685.66;5067672;28;20289;-60
2024/04/07 02:38:48;;;;;;;11.83;8.30;;;;;;;12.73;80.93;100680.47;5067583;28;20206;-61
2024/04/07 02:41:15;;;;;;;10.77;8.00;;;;;;;12.71;80.61;100677.06;5055036;28;20236;-60
2024/04/07 02:43:42;;;;;;;13.77;8.00;;;;;;;12.68;80.54;100680.53;5050458;28;20213;-59
2024/04/07 02:48:55;;;;;;;9.80;7.33;;;;;;;12.69;81.06;100676.22;5040859;28;20574;-58
2024/04/07 02:51:22;;;;;;;10.20;7.60;;;;;;;12.68;80.86;100677.09;5050596;28;20557;-60
2024/04/07 02:53:48;;;;;;;12.97;7.73;;;;;;;12.65;80.54;100675.38;5051881;28;20220;-60
2024/04/07 02:56:16;;;;;;;10.73;7.50;;;;;;;12.64;80.40;100675.41;5049521;28;20209;-66
2024/04/07 02:58:42;;;;;;;10.23;6.97;;;;;;;12.61;80.34;100678.03;5063621;28;20343;-61
2024/04/07 03:01:10;;;;;;;10.07;7.80;;;;;;;12.62;80.53;100679.72;5062267;28;20198;-63
2024/04/07 03:03:37;;;;;;;11.00;6.27;;;;;;;12.64;81.08;100689.19;5049157;28;20217;-61
2024/04/07 03:06:08;;;;;;;11.00;7.27;;;;;;;12.66;80.76;100689.16;5056051;28;20217;-59
2024/04/07 03:08:35;;;;;;;9.37;7.60;;;;;;;12.64;80.26;100685.75;5067682;28;20217;-61
2024/04/07 03:11:03;;;;;;;12.67;8.17;;;;;;;12.67;80.57;100689.19;5056299;28;20206;-60
2024/04/07 03:13:30;;;;;;;10.90;7.43;;;;;;;12.66;80.51;100691.75;5055477;28;20644;-61
2024/04/07 03:15:57;;;;;;;13.37;9.10;;;;;;;12.62;80.77;100696.09;5051885;28;20206;-60
2024/04/07 03:18:24;;;;;;;13.23;7.90;;;;;;;12.56;80.60;100701.34;5054859;28;20925;-60
2024/04/07 03:20:51;;;;;;;15.40;8.27;;;;;;;12.53;81.08;100691.88;5066615;28;20240;-61
2024/04/07 03:23:18;;;;;;;10.30;8.20;;;;;;;12.51;81.26;100703.94;5062386;28;20221;-60
2024/04/07 03:25:45;;;;;;;13.33;7.90;;;;;;;12.51;81.53;100703.09;5056928;28;20260;-64
2024/04/07 03:28:11;;;;;;;12.17;8.40;;;;;;;12.50;81.54;100712.59;5054557;28;20213;-62
2024/04/07 03:30:38;;;;;;;12.80;8.07;;;;;;;12.52;81.32;100717.75;5056031;28;20695;-65
2024/04/07 03:33:04;;;;;;;10.47;7.53;;;;;;;12.54;81.76;100723.75;5051924;28;20217;-65
2024/04/07 03:35:32;;;;;;;14.93;8.90;;;;;;;12.55;81.36;100717.72;5063699;28;20227;-64
2024/04/07 03:37:59;;;;;;;14.83;7.87;;;;;;;12.53;81.36;100712.56;5048527;28;20217;-65
2024/04/07 03:40:27;;;;;;;12.77;8.30;;;;;;;12.52;81.36;100731.53;5067903;28;20657;-64
2024/04/07 03:42:55;;;;;;;12.03;8.03;;;;;;;12.52;81.07;100728.94;5066222;28;20273;-68
2024/04/07 03:45:22;;;;;;;15.23;8.37;;;;;;;12.52;80.56;100721.19;5043755;28;20217;-65
2024/04/07 03:47:48;;;;;;;12.67;8.03;;;;;;;12.48;80.68;100724.69;5058138;28;20210;-64
2024/04/07 03:50:15;;;;;;;14.97;8.50;;;;;;;12.43;81.24;100723.00;5058639;28;20634;-64
2024/04/07 03:52:41;;;;;;;12.33;8.07;;;;;;;12.42;81.70;100729.88;5057626;28;20201;-64
2024/04/07 03:55:08;;;;;;;13.30;8.47;;;;;;;12.43;81.13;100720.41;5052680;28;20617;-65
2024/04/07 03:57:37;;;;;;;10.53;8.20;;;;;;;12.42;81.45;100718.69;5062075;28;20205;-65
2024/04/07 04:00:04;;;;;;;11.87;7.93;;;;;;;12.35;81.31;100717.88;5072435;28;20235;-68
2024/04/07 04:02:32;;;;;;;11.20;7.77;;;;;;;12.31;81.74;100716.19;5048144;28;20216;-64
2024/04/07 04:04:59;;;;;;;13.50;8.13;;;;;;;12.36;81.48;100717.00;5077691;28;20206;-64
2024/04/07 04:07:28;;;;;;;9.67;7.33;;;;;;;12.39;80.94;100708.38;5066185;28;20232;-64
2024/04/07 04:09:55;;;;;;;11.87;8.23;;;;;;;12.37;80.72;100713.56;5064606;28;20198;-65
2024/04/07 04:12:22;;;;;;;10.53;7.37;;;;;;;12.43;80.56;100726.44;5062189;28;20212;-65
2024/04/07 04:14:50;;;;;;;10.77;8.07;;;;;;;12.48;80.24;100713.47;5065353;28;20213;-65
2024/04/07 04:17:17;;;;;;;11.43;7.73;;;;;;;12.53;80.00;100720.31;5077627;28;20206;-66
2024/04/07 04:19:43;;;;;;;13.53;8.07;;;;;;;12.57;79.53;100719.41;5069754;28;20208;-65
2024/04/07 04:22:11;;;;;;;12.87;8.10;;;;;;;12.61;79.61;100714.22;5058084;28;20237;-64
2024/04/07 04:24:37;;;;;;;9.70;7.40;;;;;;;12.67;79.42;100711.59;5055906;28;20206;-65
2024/04/07 04:27:04;;;;;;;11.70;8.40;;;;;;;12.72;78.24;100722.72;5053574;28;20226;-66
2024/04/07 04:29:31;;;;;;;10.87;8.13;;;;;;;12.74;78.32;100726.16;5069508;28;20244;-66
2024/04/07 04:31:59;;;;;;;12.57;8.77;;;;;;;12.82;78.26;100729.53;5059074;28;20284;-66
2024/04/07 04:34:25;;;;;;;11.73;7.93;;;;;;;12.89;77.75;100714.81;5055455;28;20212;-66
2024/04/07 04:36:53;;;;;;;10.40;8.13;;;;;;;12.93;76.77;100721.69;5066598;28;20197;-65
2024/04/07 04:39:19;;;;;;;13.77;9.23;;;;;;;12.98;76.53;100741.44;5062411;28;20259;-65
2024/04/07 04:41:46;;;;;;;15.87;9.27;;;;;;;13.03;75.81;100736.19;5060507;28;20206;-62
2024/04/07 04:44:13;;;;;;;13.10;8.43;;;;;;;13.09;75.55;100732.72;5052988;28;20648;-62
2024/04/07 04:46:41;;;;;;;11.23;9.23;;;;;;;13.15;75.66;100727.47;5057861;28;20704;-62
2024/04/07 04:49:09;;;;;;;14.27;8.97;;;;;;;13.21;74.91;100733.41;5066456;28;20205;-66
2024/04/07 04:51:36;;;;;;;13.40;9.30;;;;;;;13.25;74.85;100734.28;5057165;28;20213;-63
2024/04/07 04:54:02;;;;;;;16.60;9.23;;;;;;;13.29;73.93;100742.00;5057553;28;20208;-63
2024/04/07 04:56:29;;;;;;;13.53;8.67;;;;;;;13.33;73.74;100731.59;5060384;28;20236;-63
2024/04/07 04:58:57;;;;;;;12.37;9.20;;;;;;;13.37;74.10;100739.31;5070601;28;20672;-63
2024/04/07 05:01:25;;;;;;;13.73;9.33;;;;;;;13.44;73.78;100746.16;5055275;28;20221;-63
2024/04/07 05:03:52;;;;;;;14.23;8.83;;;;;;;13.51;72.55;100747.78;5058722;28;20205;-64
2024/04/07 05:06:21;;;;;;;13.97;9.03;;;;;;;13.54;72.72;100742.53;5058650;28;20676;-65
2024/04/07 05:08:47;;;;;;;11.37;9.27;;;;;;;13.65;72.51;100733.78;5051040;28;20293;-64
2024/04/07 05:11:15;;;;;;;11.07;8.27;;;;;;;13.77;72.57;100738.78;5058338;28;20213;-62
2024/04/07 05:13:42;;;;;;;11.33;7.77;;;;;;;13.86;71.66;100737.84;5066673;28;20640;-65
2024/04/07 05:16:09;;;;;;;10.13;7.80;;;;;;;13.90;71.39;100729.13;5061003;28;20675;-65
2024/04/07 05:18:36;;;;;;;12.10;8.30;;;;;;;13.94;70.95;100734.25;5052813;28;20209;-63
2024/04/07 05:21:07;;;;;;;11.03;7.73;;;;;;;13.97;70.77;100736.78;5051211;28;20307;-61
2024/04/07 05:23:36;;;;;;;13.30;8.63;;;;;;;14.01;70.42;100735.88;5066402;28;20208;-67
2024/04/07 05:26:12;;;;;;;11.90;8.37;;;;;;;14.05;70.88;100738.41;5054093;28;20232;-64
2024/04/07 05:28:38;;;;;;;9.63;7.43;;;;;;;14.11;70.31;100749.56;5055745;28;20201;-68
2024/04/07 05:31:10;;;;;;;13.33;8.33;;;;;;;14.13;70.19;100752.97;5052854;28;20369;-64
2024/04/07 05:33:37;;;;;;;11.20;7.95;;;;;;;14.12;69.79;100753.84;5059783;28;20202;-63
2024/04/07 05:36:05;;;;;;;11.13;8.30;;;;;;;14.10;70.19;100750.44;5062397;28;20202;-62
2024/04/07 05:38:30;;;;;;;13.23;9.37;;;;;;;14.05;70.08;100752.22;5054144;28;20731;-63
2024/04/07 05:40:59;;;;;;;10.57;8.20;;;;;;;14.10;70.46;100762.50;5064086;28;20205;-64
2024/04/07 05:43:27;;;;;;;11.73;8.40;;;;;;;14.11;70.24;100766.84;5062352;28;20216;-64
2024/04/07 05:45:54;;;;;;;11.60;9.17;;;;;;;14.15;70.53;100777.13;5058908;28;20307;-66
2024/04/07 05:48:20;;;;;;;13.70;8.73;;;;;;;14.19;70.51;100772.75;5052537;28;21019;-66
2024/04/07 05:50:47;;;;;;;10.93;7.87;;;;;;;14.25;70.73;100780.47;5054998;28;20209;-63
2024/04/07 05:53:14;;;;;;;9.97;7.80;;;;;;;14.26;70.45;100764.88;5050602;28;20577;-66
2024/04/07 05:55:41;;;;;;;12.40;8.50;;;;;;;14.39;69.88;100770.72;5051837;28;20659;-64
2024/04/07 05:58:09;;;;;;;9.73;8.30;;;;;;;14.43;69.46;100769.81;5051811;28;20209;-64
2024/04/07 06:00:36;;;;;;;12.48;8.60;;;;;;;14.46;69.22;100771.47;5050721;28;20214;-65
2024/04/07 06:03:03;;;;;;;10.80;7.70;;;;;;;14.47;69.41;100760.22;5053809;28;20215;-63
2024/04/07 06:05:30;;;;;;;11.87;8.00;;;;;;;14.54;68.95;100753.22;5053550;28;20214;-64
2024/04/07 06:07:56;;;;;;;10.73;7.23;;;;;;;14.59;68.99;100749.69;5049172;28;20230;-63
2024/04/07 06:10:23;;;;;;;10.85;7.07;;;;;;;14.67;68.68;100746.97;5059158;28;20210;-64
2024/04/07 06:12:51;;;;;;;14.35;7.80;;;;;;;14.78;68.15;100747.63;5051884;28;20206;-62
2024/04/07 06:15:22;;;;;;;10.30;7.75;;;;;;;14.91;67.63;100737.88;5045859;28;20268;-64
2024/04/07 06:17:49;;;;;;;11.45;6.78;;;;;;;15.11;67.41;100738.38;5047443;28;20225;-62
2024/04/07 06:20:16;;;;;;;10.77;6.82;;;;;;;15.39;66.99;100736.09;5050847;28;20210;-61
2024/04/07 06:22:43;;;;;;;9.88;6.78;;;;;;;15.79;66.15;100730.06;5045807;28;20213;-62
2024/04/07 06:25:09;;;;;;;9.20;6.82;;;;;;;16.48;63.90;100727.63;5051694;28;20236;-64
2024/04/07 06:27:36;;;;;;;11.82;7.18;;;;;;;17.50;58.97;100729.22;5058188;28;20230;-63
2024/04/07 06:30:03;;;;;;;12.45;6.65;;;;;;;18.59;57.46;100737.09;5037479;28;20213;-62
2024/04/07 06:32:31;;;;;;;9.43;6.45;;;;;;;19.66;53.73;100741.19;5054295;28;20270;-64
2024/04/07 06:34:57;;;;;;;10.25;6.13;;;;;;;20.31;48.65;100749.97;5065885;28;20216;-64
2024/04/07 06:37:25;;;;;;;10.90;6.43;;;;;;;20.71;47.50;100749.19;5069668;28;20209;-62
2024/04/07 06:39:51;;;;;;;8.98;6.20;;;;;;;21.13;47.06;100743.00;5053130;28;20201;-62
2024/04/07 06:42:25;;;;;;;7.45;5.57;;;;;;;21.66;46.32;100731.91;5049741;28;20237;-62
2024/04/07 06:44:51;;;;;;;7.88;5.50;;;;;;;22.40;44.27;100729.25;5057846;28;20235;-63
2024/04/07 06:47:19;;;;;;;9.32;6.18;;;;;;;22.77;43.04;100719.50;5052093;28;20619;-62
2024/04/07 06:49:49;;;;;;;8.25;6.50;;;;;;;23.13;41.59;100722.00;5050958;28;20213;-63
2024/04/07 06:52:16;;;;;;;10.45;6.65;;;;;;;23.75;41.18;100719.56;5057433;28;20292;-62
2024/04/07 06:54:43;;;;;;;9.10;6.38;;;;;;;24.88;39.97;100716.56;5061390;28;20653;-62
2024/04/07 06:57:11;;;;;;;9.35;5.63;;;;;;;26.19;36.91;100716.22;5063777;28;20243;-63
2024/04/07 06:59:37;;;;;;;9.38;5.50;;;;;;;27.12;34.03;100711.69;5054778;28;20210;-64
2024/04/07 07:02:04;;;;;;;7.75;5.68;;;;;;;27.85;31.78;100708.25;5055135;28;20216;-63
2024/04/07 07:04:30;;;;;;;9.63;6.10;;;;;;;28.05;31.70;100719.16;5054568;28;20213;-62
2024/04/07 07:06:58;;;;;;;6.95;5.30;;;;;;;28.55;31.34;100719.88;5059810;28;20332;-63
2024/04/07 07:09:25;;;;;;;7.68;5.05;;;;;;;29.12;30.29;100716.34;5056173;28;20201;-66
2024/04/07 07:11:55;;;;;;;7.97;4.95;;;;;;;29.80;28.94;100723.28;5055174;28;20218;-68
2024/04/07 07:14:22;;;;;;;7.68;4.82;;;;;;;30.02;28.10;100718.88;5044579;28;20206;-71
2024/04/07 07:16:49;;;;;;;6.45;4.55;;;;;;;30.39;27.57;100715.84;5056730;28;20194;-64
2024/04/07 07:19:16;;;;;;;5.65;4.90;;;;;;;30.63;26.91;100713.72;5060937;28;20209;-66
2024/04/07 07:21:44;;;;;;;5.78;4.60;;;;;;;30.74;26.98;100713.69;5053196;28;20295;-69
2024/04/07 07:24:14;;;;;;;6.15;4.30;;;;;;;30.84;26.22;100707.59;5058144;28;20276;-66
2024/04/07 07:26:44;;;;;;;7.18;4.30;;;;;;;30.73;26.28;100706.66;5056493;28;20220;-66
2024/04/07 07:29:12;;;;;;;5.53;4.43;;;;;;;30.64;25.96;100718.09;5057381;28;20293;-66
2024/04/07 07:31:39;;;;;;;7.32;4.60;;;;;;;30.78;25.89;100715.13;5049062;28;20696;-65
2024/04/07 07:34:05;;;;;;;5.60;3.80;;;;;;;30.92;26.29;100716.59;5062963;28;20292;-68
2024/04/07 07:36:32;;;;;;;8.25;3.90;;;;;;;31.01;25.51;100720.28;5054734;28;20401;-67
2024/04/07 07:38:58;;;;;;;5.85;4.22;;;;;;;31.23;25.23;100721.91;5056274;28;20213;-65
2024/04/07 07:41:26;;;;;;;6.00;3.55;;;;;;;30.98;25.00;100725.88;5055661;28;20285;-66
2024/04/07 07:43:55;;;;;;;5.97;3.90;;;;;;;30.19;25.89;100731.63;5060008;28;20665;-66
2024/04/07 07:46:22;;;;;;;5.63;3.80;;;;;;;29.50;26.94;100731.91;5060411;28;20229;-65
2024/04/07 07:48:49;;;;;;;5.72;3.90;;;;;;;29.09;27.71;100733.38;5069278;28;20214;-66
2024/04/07 07:51:17;;;;;;;6.30;3.63;;;;;;;28.53;28.32;100741.19;5050373;28;20693;-67
2024/04/07 07:53:43;;;;;;;7.22;4.35;;;;;;;28.43;29.06;100740.22;5066019;28;20578;-66
2024/04/07 07:56:10;;;;;;;7.78;3.60;;;;;;;28.56;28.72;100748.06;5062010;28;20206;-67
2024/04/07 07:58:38;;;;;;;5.13;3.33;;;;;;;28.08;29.13;100737.50;5051642;28;20683;-66
2024/04/07 08:01:05;;;;;;;6.53;3.67;;;;;;;27.62;29.72;100749.63;5052340;28;20197;-67
2024/04/07 08:03:32;;;;;;;5.25;3.42;;;;;;;27.35;30.39;100752.41;5053739;28;20622;-70
2024/04/07 08:05:59;;;;;;;6.55;3.40;;;;;;;27.21;30.92;100756.03;5048651;28;20218;-68
2024/04/07 08:08:26;;;;;;;3.85;2.70;;;;;;;27.04;30.88;100758.13;5054996;28;20603;-68
2024/04/07 08:10:53;;;;;;;3.85;2.67;;;;;;;26.89;31.07;100762.69;5065256;28;20210;-67
2024/04/07 08:13:19;;;;;;;4.30;2.97;;;;;;;27.05;31.63;100760.66;5057518;28;20676;-66
2024/04/07 08:15:47;;;;;;;6.43;2.80;;;;;;;27.68;30.70;100758.91;5052314;28;20217;-70
2024/04/07 08:18:15;;;;;;;5.30;2.63;;;;;;;28.41;29.82;100758.88;5052773;28;20210;-68
2024/04/07 08:20:43;;;;;;;3.35;2.45;;;;;;;29.28;28.49;100759.31;5052556;28;20722;-63
2024/04/07 08:23:13;;;;;;;4.50;2.55;;;;;;;29.91;27.14;100762.25;5053363;28;20220;-64
2024/04/07 08:25:40;;;;;;;5.43;2.30;;;;;;;30.64;26.72;100766.00;5049782;28;20669;-66
2024/04/07 08:28:07;;;;;;;4.95;2.90;;;;;;;31.34;25.43;100758.28;5052008;28;20347;-66
2024/04/07 08:30:34;;;;;;;4.95;2.67;;;;;;;30.98;25.45;100757.81;5049966;28;20213;-65
2024/04/07 08:33:02;;;;;;;6.57;2.58;;;;;;;30.53;25.55;100761.56;5052143;28;20209;-65
2024/04/07 08:35:29;;;;;;;6.72;2.58;;;;;;;30.42;26.22;100760.78;5052338;28;20217;-65
2024/04/07 08:37:55;;;;;;;2.90;2.10;;;;;;;30.53;26.10;100761.56;5056468;28;20577;-64
2024/04/07 08:40:23;;;;;;;5.50;2.17;;;;;;;30.49;26.38;100754.81;5051748;28;20221;-65
2024/04/07 08:42:50;;;;;;;4.57;2.25;;;;;;;30.22;26.29;100755.28;5045914;28;20583;-66
2024/04/07 08:45:21;;;;;;;3.72;2.10;;;;;;;29.25;26.10;100746.25;5062347;28;20217;-64
2024/04/07 08:47:47;;;;;;;2.80;1.83;;;;;;;27.83;28.32;100759.63;5058402;28;20290;-67
2024/04/07 08:50:16;;;;;;;5.03;1.80;;;;;;;27.19;29.64;100757.09;5062213;28;20224;-66
2024/04/07 08:52:43;;;;;;;2.97;2.10;;;;;;;26.67;31.04;100752.72;5058624;28;20217;-70
2024/04/07 08:55:11;;;;;;;3.10;2.13;;;;;;;26.20;31.45;100757.53;5064042;28;20278;-65
2024/04/07 08:57:38;;;;;;;3.53;2.08;;;;;;;25.86;31.92;100758.88;5070934;28;20205;-64
2024/04/07 09:00:08;;;;;;;3.08;1.90;;;;;;;25.60;32.70;100760.50;5051660;28;20224;-66
2024/04/07 09:02:37;;;;;;;3.58;2.03;;;;;;;25.25;33.72;100752.97;5042730;28;20209;-66
2024/04/07 09:05:05;;;;;;;2.95;1.98;;;;;;;25.10;33.73;100742.47;5051611;28;20640;-63
2024/04/07 09:07:32;;;;;;;4.38;2.13;;;;;;;24.97;34.39;100748.50;5052552;28;20264;-61
2024/04/07 09:10:00;;;;;;;3.60;2.15;;;;;;;24.81;34.66;100732.75;5061985;28;20976;-65
2024/04/07 09:12:25;;;;;;;3.92;1.75;;;;;;;24.77;35.27;100730.41;5058377;28;20210;-65
2024/04/07 09:14:53;;;;;;;2.70;2.08;;;;;;;24.73;35.39;100720.97;5050855;28;20217;-65
2024/04/07 09:17:31;;;;;;;3.25;2.28;;;;;;;24.41;35.27;100722.88;5049685;28;20206;-69
2024/04/07 09:19:58;;;;;;;4.13;1.98;;;;;;;24.20;35.93;100720.53;5048307;28;20210;-65
2024/04/07 09:22:25;;;;;;;3.13;2.22;;;;;;;24.04;36.59;100720.56;5050859;28;20241;-65
2024/04/07 09:25:02;;;;;;;3.08;1.90;;;;;;;24.06;36.63;100723.94;5056233;28;20262;-66
2024/04/07 09:27:28;;;;;;;3.42;1.88;;;;;;;24.03;36.91;100718.00;5054774;28;20607;-65
2024/04/07 09:29:55;;;;;;;2.20;1.70;;;;;;;23.85;36.60;100714.63;5063074;28;20213;-64
2024/04/07 09:32:21;;;;;;;4.82;2.03;;;;;;;23.48;37.29;100715.78;5055559;28;20267;-64
2024/04/07 09:34:52;;;;;;;4.28;2.17;;;;;;;23.13;37.49;100711.50;5049857;28;20209;-68
2024/04/07 09:37:18;;;;;;;3.15;1.83;;;;;;;23.08;37.98;100715.28;5049480;28;20217;-64
2024/04/07 09:39:45;;;;;;;2.03;1.70;;;;;;;23.11;38.84;100720.38;5057353;28;20213;-60
2024/04/07 09:42:19;;;;;;;5.90;2.20;;;;;;;23.12;39.33;100716.81;5070680;28;20673;-57
2024/04/07 09:44:50;;;;;;;4.53;1.65;;;;;;;22.98;38.66;100717.56;5052534;28;20206;-64
2024/04/07 09:47:24;;;;;;;4.05;1.90;;;;;;;22.94;39.81;100717.78;5056051;28;20225;-61
2024/04/07 09:49:58;;;;;;;3.40;1.80;;;;;;;23.03;39.35;100710.28;5045079;28;20557;-59
2024/04/07 09:52:30;;;;;;;2.55;2.10;;;;;;;23.15;39.52;100709.63;5054681;28;20198;-61
2024/04/07 09:55:03;;;;;;;3.60;1.83;;;;;;;23.38;39.06;100704.91;5054581;28;20688;-59
2024/04/07 09:57:30;;;;;;;4.20;2.08;;;;;;;23.68;38.30;100706.84;5049065;28;20206;-61
2024/04/07 09:59:59;;;;;;;3.42;2.30;;;;;;;23.82;37.60;100704.25;5049433;28;20206;-55
2024/04/07 10:02:25;;;;;;;4.25;1.92;;;;;;;23.77;37.59;100698.41;5053647;28;20546;-58
2024/04/07 10:04:53;;;;;;;8.27;2.30;;;;;;;23.61;38.15;100696.63;5052606;28;20209;-59
2024/04/07 10:07:20;;;;;;;3.75;2.10;;;;;;;23.43;38.64;100697.63;5056405;28;20233;-58
2024/04/07 10:09:50;;;;;;;4.13;1.77;;;;;;;23.48;38.88;100690.31;5052743;28;20210;-58
2024/04/07 10:12:27;;;;;;;3.95;1.77;;;;;;;23.82;38.54;100693.72;5063491;28;20220;-60
2024/04/07 10:14:55;;;;;;;5.88;2.22;;;;;;;24.23;38.26;100693.16;5063941;28;20686;-56
2024/04/07 10:17:22;;;;;;;2.92;1.80;;;;;;;24.46;37.00;100682.16;5060741;28;20201;-57
2024/04/07 10:19:50;;;;;;;3.70;2.20;;;;;;;24.56;37.53;100674.56;5053008;28;20208;-59
2024/04/07 10:22:17;;;;;;;6.22;1.92;;;;;;;24.75;37.11;100664.59;5051374;28;20245;-58
2024/04/07 10:24:48;;;;;;;3.45;1.70;;;;;;;25.00;36.29;100678.91;5052096;28;20218;-58
2024/04/07 10:27:21;;;;;;;2.38;1.65;;;;;;;25.08;35.76;100670.53;5039728;28;20234;-59
2024/04/07 10:29:52;;;;;;;4.93;1.70;;;;;;;25.13;35.31;100665.84;5060960;28;20628;-67
2024/04/07 10:32:26;;;;;;;4.80;1.95;;;;;;;25.26;35.54;100658.88;5054862;28;20213;-59
2024/04/07 10:34:59;;;;;;;3.25;1.70;;;;;;;25.56;35.59;100655.22;5041635;28;20207;-59
2024/04/07 10:37:25;;;;;;;2.17;1.67;;;;;;;25.93;35.17;100649.25;5046898;28;20669;-60
2024/04/07 10:39:52;;;;;;;6.18;2.95;;;;;;;26.44;34.45;100654.66;5060724;28;20205;-60
2024/04/07 10:42:18;;;;;;;3.33;1.63;;;;;;;26.85;33.49;100653.63;5049583;28;20221;-67
2024/04/07 10:44:46;;;;;;;5.57;3.00;;;;;;;27.11;32.68;100657.09;5052490;28;20206;-66
2024/04/07 10:47:13;;;;;;;1.92;1.60;;;;;;;27.23;32.11;100643.94;5058459;28;20222;-66
2024/04/07 10:49:41;;;;;;;2.47;1.35;;;;;;;27.22;31.67;100632.53;5044041;28;20213;-64
2024/04/07 10:52:13;;;;;;;3.22;1.60;;;;;;;27.18;31.75;100631.06;5044495;28;20213;-66
2024/04/07 10:54:40;;;;;;;2.35;1.45;;;;;;;27.25;31.60;100634.97;5046814;28;20213;-67
2024/04/07 10:57:10;;;;;;;2.05;1.50;;;;;;;27.32;31.76;100630.03;5045374;28;20206;-65
2024/04/07 10:59:38;;;;;;;2.63;1.50;;;;;;;27.39;31.62;100632.13;5039136;28;20221;-67
2024/04/07 11:02:06;;;;;;;2.00;1.50;;;;;;;27.38;31.01;100633.09;5044745;28;20731;-67
2024/04/07 11:04:34;;;;;;;3.90;1.70;;;;;;;27.32;32.00;100636.22;5041018;28;20217;-68
2024/04/07 11:07:04;;;;;;;1.35;1.02;;;;;;;27.23;31.42;100622.78;5050216;28;20569;-68
2024/04/07 11:09:30;;;;;;;1.80;1.30;;;;;;;26.86;32.15;100617.44;5047163;28;20221;-67
2024/04/07 11:11:59;;;;;;;2.22;1.10;;;;;;;26.64;32.34;100621.56;5048384;28;20661;-66
2024/04/07 11:14:25;;;;;;;4.68;1.30;;;;;;;26.41;33.02;100623.13;5049590;28;20268;-62
2024/04/07 11:16:53;;;;;;;1.13;1.02;;;;;;;26.29;33.58;100634.56;5049670;28;20221;-62
2024/04/07 11:19:22;;;;;;;1.75;1.25;;;;;;;26.14;33.23;100630.28;5049670;28;20210;-63
2024/04/07 11:21:53;;;;;;;3.10;1.30;;;;;;;26.01;32.99;100627.63;5049529;28;20599;-62
2024/04/07 11:24:21;;;;;;;1.63;1.10;;;;;;;25.95;33.21;100642.06;5044249;28;20283;-61
2024/04/07 11:26:48;;;;;;;2.88;1.10;;;;;;;25.89;32.91;100641.66;5041190;28;20206;-64